Time;durP1;ratioP1;P1;durP2;ratioP2;P2;SDS_P1;SDS_P2;PMS_P1;PMS_P2;Temp;Humidity;BMP_temperature;BMP_pressure;BME280_temperature;BME280_humidity;BME280_pressure;Samples;Min_cycle;Max_cycle;Signal;HPM_P1;HPM_P2
2022/03/02 00:00:41;;;;;;;24.07;15.00;;;-3.80;99.90;;;;;;5121422;28;20228;-74
2022/03/02 00:03:08;;;;;;;25.57;14.23;;;-3.70;99.90;;;;;;5121193;28;20193;-74
2022/03/02 00:05:36;;;;;;;23.47;14.30;;;-3.60;99.90;;;;;;5121151;28;20216;-74
2022/03/02 00:08:04;;;;;;;24.30;14.80;;;-3.70;99.90;;;;;;5121844;28;20198;-74
2022/03/02 00:10:31;;;;;;;25.50;14.13;;;-3.80;99.90;;;;;;5122352;28;20195;-74
2022/03/02 00:12:58;;;;;;;21.83;14.40;;;-3.90;99.90;;;;;;5120869;28;20218;-74
2022/03/02 00:15:24;;;;;;;22.90;14.33;;;-4.10;99.90;;;;;;5121676;28;20289;-74
2022/03/02 00:17:53;;;;;;;26.20;15.67;;;-4.30;99.90;;;;;;5123474;28;20202;-74
2022/03/02 00:20:19;;;;;;;24.67;13.80;;;-4.20;99.90;;;;;;5119514;28;20287;-74
2022/03/02 00:22:46;;;;;;;24.13;14.80;;;-4.30;99.90;;;;;;5118592;28;20203;-74
2022/03/02 00:25:13;;;;;;;27.33;14.17;;;-4.20;99.90;;;;;;5119677;28;20196;-74
2022/03/02 00:27:40;;;;;;;22.33;14.33;;;-4.10;99.90;;;;;;5120371;28;20256;-74
2022/03/02 00:30:10;;;;;;;24.13;14.93;;;-4.00;99.90;;;;;;5119465;28;20198;-74
2022/03/02 00:32:37;;;;;;;20.20;12.87;;;-4.10;99.90;;;;;;5117952;28;20663;-74
2022/03/02 00:35:06;;;;;;;22.53;14.03;;;-3.90;99.90;;;;;;5117571;28;20202;-74
2022/03/02 00:37:33;;;;;;;24.00;14.87;;;-3.90;99.90;;;;;;5117598;28;20192;-74
2022/03/02 00:40:00;;;;;;;22.90;14.67;;;-4.00;99.90;;;;;;5117322;28;20209;-74
2022/03/02 00:42:29;;;;;;;24.03;14.67;;;-4.00;99.90;;;;;;5117933;28;20615;-74
2022/03/02 00:44:56;;;;;;;22.60;14.53;;;-4.00;99.90;;;;;;5117893;28;20205;-75
2022/03/02 00:47:24;;;;;;;21.67;13.87;;;-4.00;99.90;;;;;;5116955;28;20230;-74
2022/03/02 00:49:51;;;;;;;22.97;14.13;;;-4.00;99.90;;;;;;5117297;28;20614;-74
2022/03/02 00:52:20;;;;;;;24.87;14.53;;;-4.10;99.90;;;;;;5117217;28;20254;-74
2022/03/02 00:54:46;;;;;;;22.33;14.70;;;-4.10;99.90;;;;;;5117203;28;20202;-74
2022/03/02 00:57:13;;;;;;;28.07;16.00;;;-4.20;99.90;;;;;;5117608;28;20209;-74
2022/03/02 00:59:39;;;;;;;22.17;14.97;;;-4.20;99.90;;;;;;5117178;28;20197;-74
2022/03/02 01:02:06;;;;;;;22.80;14.50;;;-4.00;99.90;;;;;;5118403;28;20198;-74
2022/03/02 01:04:33;;;;;;;24.03;14.60;;;-4.30;99.90;;;;;;5117769;28;20541;-74
2022/03/02 01:07:00;;;;;;;21.83;14.87;;;-4.50;99.90;;;;;;5117404;28;20279;-74
2022/03/02 01:09:28;;;;;;;23.33;14.97;;;-4.10;99.90;;;;;;5117920;28;20206;-74
2022/03/02 01:11:55;;;;;;;23.50;14.30;;;-4.10;99.90;;;;;;5118012;28;20256;-74
2022/03/02 01:14:22;;;;;;;24.70;14.63;;;-4.30;99.90;;;;;;5117015;28;20197;-74
2022/03/02 01:16:49;;;;;;;22.97;14.37;;;-4.40;99.90;;;;;;5116848;28;20211;-74
2022/03/02 01:19:16;;;;;;;23.37;14.63;;;-4.60;99.90;;;;;;5117065;28;20279;-74
2022/03/02 01:21:42;;;;;;;23.80;15.23;;;-4.70;99.90;;;;;;5117532;28;20197;-74
2022/03/02 01:24:09;;;;;;;26.60;14.40;;;-4.80;99.90;;;;;;5116596;28;20195;-74
2022/03/02 01:26:37;;;;;;;22.63;14.37;;;-4.60;99.90;;;;;;5117800;28;20286;-74
2022/03/02 01:29:04;;;;;;;23.27;14.17;;;-4.60;99.90;;;;;;5117032;28;20201;-74
2022/03/02 01:31:31;;;;;;;25.57;15.03;;;-4.70;99.90;;;;;;5117533;28;20654;-74
2022/03/02 01:33:58;;;;;;;25.77;14.43;;;-4.80;99.90;;;;;;5118243;28;20196;-74
2022/03/02 01:36:25;;;;;;;21.80;13.57;;;-4.50;99.90;;;;;;5118149;28;20235;-74
2022/03/02 01:38:52;;;;;;;23.27;14.03;;;-4.50;99.90;;;;;;5121493;28;20274;-74
2022/03/02 01:41:21;;;;;;;20.30;13.93;;;-4.40;99.90;;;;;;5119244;28;20288;-74
2022/03/02 01:43:50;;;;;;;23.97;14.33;;;-4.40;99.90;;;;;;5118096;28;20283;-74
2022/03/02 01:46:17;;;;;;;24.63;14.83;;;-4.30;99.90;;;;;;5117369;28;20226;-74
2022/03/02 01:48:45;;;;;;;21.67;13.93;;;-4.20;99.90;;;;;;5117643;28;20241;-74
2022/03/02 01:51:12;;;;;;;21.70;13.77;;;-4.40;99.90;;;;;;5118038;28;20201;-74
2022/03/02 01:53:39;;;;;;;21.93;14.50;;;-4.40;99.90;;;;;;5117186;28;20207;-74
2022/03/02 01:56:06;;;;;;;25.13;15.33;;;-4.50;99.90;;;;;;5116822;28;20648;-74
2022/03/02 01:58:33;;;;;;;22.13;13.77;;;-4.50;99.90;;;;;;5116757;28;20198;-74
2022/03/02 02:01:02;;;;;;;23.07;14.20;;;-4.60;99.90;;;;;;5116799;28;20211;-74
2022/03/02 02:03:29;;;;;;;23.00;14.20;;;-4.60;99.90;;;;;;5117377;28;20254;-74
2022/03/02 02:05:56;;;;;;;26.23;15.03;;;-4.50;99.90;;;;;;5117241;28;20217;-74
2022/03/02 02:08:23;;;;;;;22.10;13.77;;;-4.50;99.90;;;;;;5117433;28;20197;-74
2022/03/02 02:10:51;;;;;;;22.47;13.73;;;-4.40;99.90;;;;;;5117890;28;20200;-74
2022/03/02 02:13:18;;;;;;;24.60;14.33;;;-4.30;99.90;;;;;;5117033;28;20277;-74
2022/03/02 02:15:45;;;;;;;20.23;13.03;;;-4.50;99.90;;;;;;5117292;28;20233;-74
2022/03/02 02:18:13;;;;;;;31.07;15.13;;;-4.60;99.90;;;;;;5117726;28;20283;-74
2022/03/02 02:20:41;;;;;;;22.40;13.77;;;-4.60;99.90;;;;;;5116938;28;20286;-74
2022/03/02 02:23:08;;;;;;;26.03;16.20;;;-4.50;99.90;;;;;;5114321;28;20598;-74
2022/03/02 02:25:35;;;;;;;28.23;18.63;;;-4.50;99.90;;;;;;5114165;28;20200;-74
2022/03/02 02:28:02;;;;;;;27.90;18.63;;;-4.60;99.90;;;;;;5116150;28;20277;-74
2022/03/02 02:30:30;;;;;;;48.40;31.97;;;-4.80;99.90;;;;;;5116776;28;20257;-74
2022/03/02 02:32:58;;;;;;;26.93;17.83;;;-4.90;99.90;;;;;;5117631;28;20275;-74
2022/03/02 02:35:26;;;;;;;22.20;13.53;;;-4.90;99.90;;;;;;5116898;28;20217;-74
2022/03/02 02:37:55;;;;;;;27.10;17.30;;;-5.00;99.90;;;;;;5117060;28;20206;-74
2022/03/02 02:40:22;;;;;;;23.77;14.00;;;-5.10;99.90;;;;;;5118117;28;20731;-74
2022/03/02 02:42:49;;;;;;;20.20;12.93;;;-5.10;99.90;;;;;;5117924;28;20552;-74
2022/03/02 02:45:20;;;;;;;22.23;14.40;;;-4.90;99.90;;;;;;5118838;28;20260;-74
2022/03/02 02:47:47;;;;;;;23.83;14.33;;;-4.80;99.90;;;;;;5118269;28;20229;-74
2022/03/02 02:50:17;;;;;;;22.27;14.30;;;-4.60;99.90;;;;;;5117582;28;20696;-74
2022/03/02 02:52:44;;;;;;;21.33;13.70;;;-4.70;99.90;;;;;;5117637;28;20200;-75
2022/03/02 02:55:13;;;;;;;23.50;13.73;;;-4.50;99.90;;;;;;5117922;28;20222;-74
2022/03/02 02:57:40;;;;;;;22.83;13.67;;;-4.40;99.90;;;;;;5117613;28;20196;-74
2022/03/02 03:00:09;;;;;;;21.70;13.23;;;-4.50;99.90;;;;;;5117049;28;20201;-74
2022/03/02 03:02:37;;;;;;;21.10;14.07;;;-4.80;99.90;;;;;;5116764;28;20254;-74
2022/03/02 03:05:04;;;;;;;21.40;13.70;;;-4.90;99.90;;;;;;5118401;28;20196;-74
2022/03/02 03:07:30;;;;;;;17.63;13.03;;;-5.10;99.90;;;;;;5117985;28;20280;-74
2022/03/02 03:09:57;;;;;;;20.47;13.47;;;-5.00;99.90;;;;;;5117185;28;20196;-74
2022/03/02 03:12:25;;;;;;;23.13;14.23;;;-4.90;99.90;;;;;;5116389;28;20201;-74
2022/03/02 03:14:52;;;;;;;22.13;12.87;;;-4.70;99.90;;;;;;5114401;28;20192;-74
2022/03/02 03:17:18;;;;;;;19.20;13.47;;;-4.50;99.90;;;;;;5114442;28;20197;-74
2022/03/02 03:19:45;;;;;;;25.87;13.73;;;-4.70;99.90;;;;;;5113735;28;20701;-74
2022/03/02 03:22:12;;;;;;;24.03;14.67;;;-4.60;99.90;;;;;;5113865;28;20247;-74
2022/03/02 03:24:39;;;;;;;21.50;13.00;;;-4.80;99.90;;;;;;5114294;28;20252;-74
2022/03/02 03:27:05;;;;;;;20.97;13.77;;;-4.80;99.90;;;;;;5114299;28;20282;-74
2022/03/02 03:29:33;;;;;;;21.80;14.37;;;-4.90;99.90;;;;;;5114052;28;20193;-74
2022/03/02 03:32:00;;;;;;;24.33;15.03;;;-4.70;99.90;;;;;;5114360;28;20258;-74
2022/03/02 03:34:27;;;;;;;24.30;13.87;;;-4.60;99.90;;;;;;5113789;28;20209;-74
2022/03/02 03:36:53;;;;;;;26.07;14.90;;;-4.70;99.90;;;;;;5113819;28;20223;-74
2022/03/02 03:39:20;;;;;;;24.37;14.97;;;-4.70;99.90;;;;;;5114214;28;20251;-74
2022/03/02 03:41:47;;;;;;;23.27;13.67;;;-4.50;99.90;;;;;;5113514;28;20210;-74
2022/03/02 03:44:13;;;;;;;21.07;13.43;;;-4.60;99.90;;;;;;5114065;28;20208;-74
2022/03/02 03:46:42;;;;;;;21.73;12.80;;;-4.50;99.90;;;;;;5114156;28;20269;-74
2022/03/02 03:49:09;;;;;;;20.70;13.33;;;-4.60;99.90;;;;;;5117906;28;20196;-74
2022/03/02 03:51:36;;;;;;;27.73;14.07;;;-4.50;99.90;;;;;;5119370;28;20197;-74
2022/03/02 03:54:02;;;;;;;20.67;13.43;;;-4.40;99.90;;;;;;5124414;28;20197;-74
2022/03/02 03:56:30;;;;;;;21.07;13.53;;;-4.40;99.90;;;;;;5124540;28;20258;-75
2022/03/02 03:58:58;;;;;;;22.83;14.57;;;-4.40;99.90;;;;;;5124578;28;20204;-74
2022/03/02 04:01:25;;;;;;;19.13;13.40;;;-4.40;99.90;;;;;;5124821;28;20223;-74
2022/03/02 04:03:53;;;;;;;20.33;12.97;;;-4.30;99.90;;;;;;5124483;28;20249;-75
2022/03/02 04:06:20;;;;;;;21.27;13.03;;;-4.30;99.90;;;;;;5121916;28;20202;-75
2022/03/02 04:08:47;;;;;;;21.13;12.87;;;-4.20;99.90;;;;;;5118770;28;20199;-74
2022/03/02 04:11:14;;;;;;;20.87;13.60;;;-4.10;99.90;;;;;;5117223;28;20206;-74
2022/03/02 04:13:40;;;;;;;21.50;13.13;;;-4.10;99.90;;;;;;5116890;28;20247;-74
2022/03/02 04:16:07;;;;;;;22.13;12.70;;;-4.10;99.90;;;;;;5116563;28;20194;-74
2022/03/02 04:18:34;;;;;;;19.10;12.77;;;-4.00;99.90;;;;;;5116740;28;20205;-74
2022/03/02 04:21:02;;;;;;;19.67;12.83;;;-4.10;99.90;;;;;;5116939;28;20252;-74
2022/03/02 04:23:29;;;;;;;22.47;13.40;;;-4.10;99.90;;;;;;5117152;28;20201;-74
2022/03/02 04:25:55;;;;;;;22.90;12.70;;;-4.00;99.90;;;;;;5116660;28;20651;-74
2022/03/02 04:28:22;;;;;;;20.20;12.63;;;-3.90;99.90;;;;;;5116503;28;20264;-74
2022/03/02 04:30:49;;;;;;;20.90;12.67;;;-3.90;99.90;;;;;;5116761;28;20678;-74
2022/03/02 04:33:15;;;;;;;18.83;12.83;;;-3.90;99.90;;;;;;5116450;28;20228;-74
2022/03/02 04:35:42;;;;;;;19.37;12.77;;;-3.90;99.90;;;;;;5116865;28;20259;-74
2022/03/02 04:38:10;;;;;;;19.00;12.63;;;-3.80;99.90;;;;;;5116628;28;20201;-74
2022/03/02 04:40:38;;;;;;;21.93;13.07;;;-3.80;99.90;;;;;;5116521;28;20282;-74
2022/03/02 04:43:05;;;;;;;18.53;12.10;;;-3.80;99.90;;;;;;5116471;28;20197;-73
2022/03/02 04:45:31;;;;;;;21.30;12.63;;;-3.80;99.90;;;;;;5116533;28;20530;-73
2022/03/02 04:47:59;;;;;;;20.33;12.03;;;-3.80;99.90;;;;;;5116110;28;20732;-73
2022/03/02 04:50:27;;;;;;;17.43;12.23;;;-3.80;99.90;;;;;;5116469;28;20255;-73
2022/03/02 04:52:55;;;;;;;17.23;11.07;;;-3.80;99.90;;;;;;5116392;28;20195;-73
2022/03/02 04:55:24;;;;;;;19.43;11.77;;;-3.80;99.90;;;;;;5116586;28;20589;-74
2022/03/02 04:57:52;;;;;;;15.77;10.87;;;-3.80;99.90;;;;;;5116793;28;20649;-74
2022/03/02 05:00:21;;;;;;;19.30;10.93;;;-3.80;99.90;;;;;;5115357;28;20202;-74
2022/03/02 05:02:48;;;;;;;17.53;11.17;;;-3.70;99.90;;;;;;5116254;28;20202;-73
2022/03/02 05:05:22;;;;;;;15.90;11.20;;;-3.80;99.90;;;;;;5116179;28;20609;-74
2022/03/02 05:07:50;;;;;;;18.60;11.53;;;-4.00;99.90;;;;;;5116479;28;20692;-74
2022/03/02 05:10:18;;;;;;;19.30;11.23;;;-3.90;99.90;;;;;;5116201;28;20209;-74
2022/03/02 05:12:47;;;;;;;16.67;10.40;;;-3.80;99.90;;;;;;5115993;28;20543;-74
2022/03/02 05:15:16;;;;;;;18.63;11.03;;;-4.00;99.90;;;;;;5115738;28;20247;-74
2022/03/02 05:17:43;;;;;;;23.47;10.90;;;-3.90;99.90;;;;;;5115891;28;20191;-74
2022/03/02 05:20:12;;;;;;;17.50;12.13;;;-3.90;99.90;;;;;;5115360;28;20229;-74
2022/03/02 05:22:39;;;;;;;16.20;11.07;;;-3.90;99.90;;;;;;5115925;28;20224;-74
2022/03/02 05:25:09;;;;;;;20.00;12.07;;;-3.90;99.90;;;;;;5115542;28;20210;-74
2022/03/02 05:27:37;;;;;;;21.57;12.23;;;-3.90;99.90;;;;;;5115640;28;20268;-74
2022/03/02 05:30:06;;;;;;;24.00;12.10;;;-3.90;99.90;;;;;;5115738;28;20233;-74
2022/03/02 05:32:33;;;;;;;24.53;11.80;;;-4.00;99.90;;;;;;5115682;28;20206;-74
2022/03/02 05:35:00;;;;;;;25.10;12.40;;;-3.80;99.90;;;;;;5115634;28;20251;-74
2022/03/02 05:37:27;;;;;;;22.00;11.67;;;-3.70;99.90;;;;;;5115456;28;20245;-74
2022/03/02 05:39:53;;;;;;;27.43;12.53;;;-3.60;99.90;;;;;;5115062;28;20714;-74
2022/03/02 05:42:20;;;;;;;23.67;12.57;;;-3.60;99.90;;;;;;5115386;28;20199;-74
2022/03/02 05:44:47;;;;;;;22.60;12.17;;;-3.70;99.90;;;;;;5115720;28;20251;-74
2022/03/02 05:47:15;;;;;;;21.23;12.87;;;-3.70;99.90;;;;;;5115414;28;20254;-74
2022/03/02 05:49:42;;;;;;;26.20;13.40;;;-3.70;99.90;;;;;;5115067;28;20199;-74
2022/03/02 05:52:08;;;;;;;22.07;12.10;;;-3.70;99.90;;;;;;5115186;28;20243;-74
2022/03/02 05:54:35;;;;;;;20.60;12.13;;;-3.90;99.90;;;;;;5114911;28;20217;-74
2022/03/02 05:57:02;;;;;;;18.97;12.70;;;-4.00;99.90;;;;;;5115164;28;20232;-74
2022/03/02 05:59:29;;;;;;;31.83;13.80;;;-3.90;99.90;;;;;;5115069;28;20205;-74
2022/03/02 06:01:56;;;;;;;22.00;12.50;;;-4.00;99.90;;;;;;5115132;28;20202;-74
2022/03/02 06:04:24;;;;;;;22.57;13.33;;;-3.90;99.90;;;;;;5115471;28;20203;-74
2022/03/02 06:06:51;;;;;;;45.07;26.47;;;-3.90;99.90;;;;;;5115210;28;20590;-74
2022/03/02 06:09:18;;;;;;;50.47;32.13;;;-3.80;99.90;;;;;;5115096;28;20234;-74
2022/03/02 06:11:46;;;;;;;33.97;21.50;;;-3.90;99.90;;;;;;5114668;28;20244;-74
2022/03/02 06:14:13;;;;;;;32.37;20.57;;;-4.00;99.90;;;;;;5114727;28;20203;-74
2022/03/02 06:16:40;;;;;;;29.80;14.57;;;-3.80;99.90;;;;;;5114815;28;20554;-74
2022/03/02 06:19:07;;;;;;;21.33;14.47;;;-3.70;99.90;;;;;;5114570;28;20228;-74
2022/03/02 06:21:38;;;;;;;22.87;13.10;;;-3.60;99.90;;;;;;5114873;28;20290;-74
2022/03/02 06:24:05;;;;;;;19.40;12.10;;;-3.60;99.90;;;;;;5114523;28;20199;-74
2022/03/02 06:26:33;;;;;;;17.57;12.50;;;-3.60;99.90;;;;;;5114661;28;20289;-74
2022/03/02 06:28:59;;;;;;;21.77;12.53;;;-3.50;99.90;;;;;;5114671;28;20308;-74
2022/03/02 06:31:26;;;;;;;32.37;13.47;;;-3.40;99.90;;;;;;5114843;28;20203;-74
2022/03/02 06:33:53;;;;;;;19.73;12.97;;;-3.40;99.90;;;;;;5114453;28;20616;-73
2022/03/02 06:36:20;;;;;;;23.10;13.47;;;-3.20;99.90;;;;;;5114535;28;20716;-74
2022/03/02 06:38:48;;;;;;;24.90;14.40;;;-3.10;99.90;;;;;;5114573;28;20237;-74
2022/03/02 06:41:24;;;;;;;22.60;13.57;;;-3.00;99.90;;;;;;5114184;28;20241;-74
2022/03/02 06:43:57;;;;;;;25.23;14.37;;;-2.90;99.90;;;;;;5114452;28;20198;-74
2022/03/02 06:46:32;;;;;;;19.60;13.73;;;-2.80;99.90;;;;;;5114421;28;20196;-75
2022/03/02 06:49:03;;;;;;;22.60;13.47;;;-2.70;99.90;;;;;;5114625;28;20322;-74
2022/03/02 06:51:32;;;;;;;27.47;14.83;;;-2.60;99.90;;;;;;5114125;28;20202;-75
2022/03/02 06:54:05;;;;;;;23.73;13.83;;;-2.40;99.90;;;;;;5114049;28;20286;-73
2022/03/02 06:56:39;;;;;;;25.20;14.37;;;-2.30;99.90;;;;;;5114362;28;20223;-73
2022/03/02 06:59:11;;;;;;;27.23;14.60;;;-2.10;99.90;;;;;;5115234;28;20290;-74
2022/03/02 07:01:41;;;;;;;25.43;13.80;;;-2.00;99.90;;;;;;5115011;28;20203;-74
2022/03/02 07:04:10;;;;;;;19.27;13.03;;;-1.90;99.90;;;;;;5115511;28;20195;-74
2022/03/02 07:06:37;;;;;;;22.90;13.37;;;-1.70;99.90;;;;;;5114446;28;20720;-74
2022/03/02 07:09:07;;;;;;;31.20;13.90;;;-1.60;99.90;;;;;;5114538;28;20632;-75
2022/03/02 07:11:35;;;;;;;22.57;13.57;;;-1.40;99.90;;;;;;5114485;28;20670;-73
2022/03/02 07:14:02;;;;;;;26.87;14.53;;;-1.30;99.90;;;;;;5114595;28;20291;-73
2022/03/02 07:16:29;;;;;;;24.67;14.07;;;-1.20;99.90;;;;;;5114393;28;20708;-75
2022/03/02 07:18:56;;;;;;;24.20;13.63;;;-1.10;99.90;;;;;;5113994;28;20277;-75
2022/03/02 07:21:27;;;;;;;23.47;14.00;;;-1.00;99.90;;;;;;5114504;28;20679;-75
2022/03/02 07:23:56;;;;;;;25.37;13.37;;;-0.90;99.90;;;;;;5118886;28;20192;-74
2022/03/02 07:26:25;;;;;;;20.63;13.20;;;-0.80;99.90;;;;;;5118172;28;20608;-74
2022/03/02 07:28:53;;;;;;;17.10;11.97;;;-0.70;99.90;;;;;;5118539;28;20227;-74
2022/03/02 07:31:22;;;;;;;18.53;12.23;;;-0.60;99.90;;;;;;5118839;28;20199;-74
2022/03/02 07:33:52;;;;;;;18.30;11.57;;;-0.50;99.90;;;;;;5117854;28;20196;-74
2022/03/02 07:36:20;;;;;;;17.57;11.43;;;-0.50;99.90;;;;;;5118059;28;20200;-73
2022/03/02 07:38:48;;;;;;;22.37;12.03;;;-0.40;99.90;;;;;;5118212;28;20276;-74
2022/03/02 07:41:15;;;;;;;17.13;11.23;;;-0.40;99.90;;;;;;5118276;28;20199;-76
2022/03/02 07:43:44;;;;;;;18.30;11.80;;;-0.20;99.90;;;;;;5117910;28;20286;-75
2022/03/02 07:46:12;;;;;;;20.03;11.90;;;-0.10;99.90;;;;;;5117879;28;20199;-74
2022/03/02 07:48:40;;;;;;;18.93;11.87;;;0.00;99.90;;;;;;5119337;28;20223;-75
2022/03/02 07:51:09;;;;;;;19.60;11.27;;;0.10;99.90;;;;;;5117891;28;20195;-74
2022/03/02 07:53:41;;;;;;;17.83;10.60;;;0.20;99.90;;;;;;5117853;28;20200;-74
2022/03/02 07:56:08;;;;;;;16.57;11.30;;;0.20;99.90;;;;;;5117841;28;20705;-74
2022/03/02 07:58:38;;;;;;;20.30;11.10;;;0.40;99.90;;;;;;5117590;28;20200;-74
2022/03/02 08:01:07;;;;;;;17.93;12.20;;;0.60;99.90;;;;;;5117558;28;20199;-74
2022/03/02 08:03:38;;;;;;;17.57;10.83;;;0.70;99.90;;;;;;5117608;28;20720;-72
2022/03/02 08:06:06;;;;;;;18.23;11.33;;;1.00;99.90;;;;;;5117652;28;20714;-74
2022/03/02 08:08:33;;;;;;;17.87;10.70;;;1.10;99.90;;;;;;5117093;28;20766;-76
2022/03/02 08:10:59;;;;;;;19.60;11.20;;;1.30;99.90;;;;;;5116662;28;20712;-72
2022/03/02 08:13:27;;;;;;;20.23;11.00;;;1.50;99.90;;;;;;5117714;28;20254;-75
2022/03/02 08:15:53;;;;;;;17.17;11.30;;;1.70;99.90;;;;;;5098923;28;20196;-73
2022/03/02 08:18:22;;;;;;;14.77;11.07;;;1.80;99.90;;;;;;5116679;28;20254;-73
2022/03/02 08:20:50;;;;;;;14.80;10.93;;;2.00;99.90;;;;;;5116984;28;20191;-73
2022/03/02 08:23:19;;;;;;;16.33;10.60;;;2.10;99.90;;;;;;5117398;28;20251;-74
2022/03/02 08:25:47;;;;;;;14.17;10.53;;;2.20;99.90;;;;;;5114401;28;20722;-74
2022/03/02 08:28:16;;;;;;;13.67;10.57;;;2.40;99.90;;;;;;5114004;28;20222;-73
2022/03/02 08:30:45;;;;;;;18.83;11.10;;;2.60;99.90;;;;;;5116127;28;20267;-74
2022/03/02 08:33:19;;;;;;;15.23;11.63;;;2.80;99.90;;;;;;5116732;28;20198;-74
2022/03/02 08:35:51;;;;;;;16.33;11.10;;;2.80;99.90;;;;;;5115789;28;20803;-75
2022/03/02 08:38:18;;;;;;;16.07;10.83;;;2.90;99.90;;;;;;5116484;28;20257;-74
2022/03/02 08:40:45;;;;;;;15.70;11.60;;;2.90;99.90;;;;;;5116250;28;20647;-74
2022/03/02 08:43:15;;;;;;;17.00;10.80;;;3.00;99.90;;;;;;5116018;28;20252;-74
2022/03/02 08:45:44;;;;;;;22.73;11.53;;;3.00;99.90;;;;;;5118223;28;20210;-75
2022/03/02 08:48:13;;;;;;;19.17;13.00;;;3.00;99.90;;;;;;5116248;28;20219;-75
2022/03/02 08:50:41;;;;;;;18.17;11.30;;;3.20;99.90;;;;;;5116371;28;20263;-74
2022/03/02 08:53:12;;;;;;;21.43;12.23;;;3.40;99.90;;;;;;5112131;28;20248;-74
2022/03/02 08:55:41;;;;;;;16.20;11.33;;;3.40;99.90;;;;;;5116337;28;20248;-74
2022/03/02 08:58:08;;;;;;;15.77;10.47;;;3.30;99.90;;;;;;5115864;28;20651;-74
2022/03/02 09:00:36;;;;;;;17.63;11.73;;;3.50;99.90;;;;;;5116505;28;20241;-73
2022/03/02 09:03:04;;;;;;;16.90;11.43;;;3.50;99.90;;;;;;5115714;28;20288;-73
2022/03/02 09:05:34;;;;;;;17.50;11.27;;;3.50;99.90;;;;;;5116920;28;20286;-81
2022/03/02 09:08:01;;;;;;;16.27;12.57;;;3.60;99.90;;;;;;5119113;28;20548;-73
2022/03/02 09:10:29;;;;;;;15.80;11.53;;;3.70;97.50;;;;;;5116221;28;20700;-73
2022/03/02 09:12:56;;;;;;;16.50;11.70;;;3.80;99.70;;;;;;5116141;28;20196;-77
2022/03/02 09:15:23;;;;;;;16.97;12.00;;;4.00;99.30;;;;;;5117208;28;20192;-76
2022/03/02 09:17:50;;;;;;;16.90;11.73;;;4.10;96.10;;;;;;5123112;28;20195;-74
2022/03/02 09:20:16;;;;;;;20.77;12.70;;;4.30;96.20;;;;;;5123307;28;20257;-74
2022/03/02 09:22:45;;;;;;;18.40;12.10;;;4.60;94.40;;;;;;5121291;28;20207;-76
2022/03/02 09:25:12;;;;;;;16.13;11.97;;;4.80;92.70;;;;;;5118940;28;20215;-75
2022/03/02 09:27:41;;;;;;;15.17;12.17;;;4.90;88.00;;;;;;5118096;28;20196;-73
2022/03/02 09:30:10;;;;;;;17.63;12.07;;;4.90;84.40;;;;;;5116795;28;20224;-74
2022/03/02 09:32:41;;;;;;;16.47;11.90;;;5.10;85.20;;;;;;5115609;28;20197;-72
2022/03/02 09:35:13;;;;;;;16.53;11.80;;;5.20;81.10;;;;;;5115526;28;20199;-74
2022/03/02 09:37:43;;;;;;;17.40;11.97;;;5.50;78.50;;;;;;5115080;28;20248;-73
2022/03/02 09:40:21;;;;;;;17.53;12.10;;;5.70;70.80;;;;;;5115410;28;20234;-74
2022/03/02 09:42:55;;;;;;;15.20;11.57;;;5.70;66.60;;;;;;5114940;28;20195;-74
2022/03/02 09:45:25;;;;;;;16.23;11.53;;;5.80;63.00;;;;;;5114091;28;20202;-73
2022/03/02 09:47:56;;;;;;;15.40;11.30;;;6.20;63.00;;;;;;5113997;28;20231;-74
2022/03/02 09:50:24;;;;;;;14.37;11.43;;;6.50;61.80;;;;;;5113762;28;20249;-75
2022/03/02 09:52:54;;;;;;;15.63;11.80;;;6.80;56.40;;;;;;5114210;28;20196;-74
2022/03/02 09:55:23;;;;;;;17.03;12.43;;;6.80;58.50;;;;;;5114221;28;20231;-75
2022/03/02 09:57:53;;;;;;;13.60;11.50;;;7.20;56.00;;;;;;5113980;28;20192;-74
2022/03/02 10:00:22;;;;;;;17.33;11.73;;;7.20;55.30;;;;;;5113924;28;20206;-74
2022/03/02 10:02:51;;;;;;;13.03;11.37;;;7.20;52.70;;;;;;5113726;28;20199;-74
2022/03/02 10:05:20;;;;;;;15.77;11.67;;;7.10;52.00;;;;;;5113888;28;20567;-74
2022/03/02 10:07:55;;;;;;;15.03;12.03;;;7.20;53.50;;;;;;5113885;28;20195;-75
2022/03/02 10:10:23;;;;;;;15.07;11.90;;;7.20;52.50;;;;;;5114075;28;20654;-75
2022/03/02 10:12:52;;;;;;;15.77;12.23;;;7.10;52.70;;;;;;5114723;28;20202;-72
2022/03/02 10:15:19;;;;;;;16.00;11.97;;;7.20;52.30;;;;;;5113884;28;20196;-75
2022/03/02 10:17:48;;;;;;;14.40;12.00;;;7.30;51.20;;;;;;5113895;28;20207;-74
2022/03/02 10:20:16;;;;;;;14.73;11.97;;;7.30;51.90;;;;;;5113635;28;20261;-75
2022/03/02 10:23:12;;;;;;;14.40;12.03;;;7.30;51.90;;;;;;5113376;28;20643;-73
2022/03/02 10:26:00;;;;;;;12.60;11.17;;;7.50;50.60;;;;;;5113573;28;20536;-73
2022/03/02 10:28:31;;;;;;;16.30;12.03;;;7.80;50.50;;;;;;5113633;28;20196;-74
2022/03/02 10:31:18;;;;;;;17.20;11.80;;;8.20;49.60;;;;;;5110841;28;20268;-75
2022/03/02 10:33:48;;;;;;;14.47;12.63;;;8.90;47.80;;;;;;5111156;28;20256;-73
2022/03/02 10:36:17;;;;;;;15.20;12.17;;;9.00;45.20;;;;;;5111141;28;20261;-72
2022/03/02 10:38:50;;;;;;;18.63;12.83;;;9.10;44.70;;;;;;5110767;28;20212;-72
2022/03/02 10:41:21;;;;;;;15.10;13.37;;;9.20;44.00;;;;;;5110729;28;20935;-73
2022/03/02 10:43:58;;;;;;;13.80;11.43;;;9.10;43.30;;;;;;5110737;28;20200;-74
2022/03/02 10:46:26;;;;;;;15.63;12.43;;;9.00;42.50;;;;;;5111132;28;20203;-72
2022/03/02 10:49:03;;;;;;;14.87;13.07;;;8.80;40.90;;;;;;5110713;28;20617;-73
2022/03/02 10:51:31;;;;;;;15.37;11.83;;;8.30;41.80;;;;;;5110845;28;20290;-73
2022/03/02 10:54:01;;;;;;;17.30;12.20;;;8.30;41.10;;;;;;5110412;28;20195;-75
2022/03/02 10:56:29;;;;;;;16.00;11.70;;;8.20;41.20;;;;;;5110636;28;20208;-73
2022/03/02 10:59:00;;;;;;;13.20;11.77;;;8.50;41.60;;;;;;5112091;28;20200;-72
2022/03/02 11:01:27;;;;;;;14.67;12.03;;;8.30;42.30;;;;;;5113059;28;20581;-73
2022/03/02 11:03:55;;;;;;;15.33;11.53;;;8.20;43.10;;;;;;5112957;28;20191;-74
2022/03/02 11:06:24;;;;;;;13.70;11.57;;;8.20;42.10;;;;;;5112972;28;20215;-73
2022/03/02 11:08:55;;;;;;;15.80;11.73;;;8.10;42.80;;;;;;5112803;28;20227;-73
2022/03/02 11:11:25;;;;;;;15.10;11.30;;;8.20;43.00;;;;;;5112961;28;20196;-73
2022/03/02 11:13:52;;;;;;;15.37;11.77;;;8.10;41.60;;;;;;5112990;28;20199;-72
2022/03/02 11:16:22;;;;;;;13.87;11.50;;;8.10;43.00;;;;;;5113067;28;20227;-74
2022/03/02 11:18:51;;;;;;;14.43;11.53;;;8.10;41.90;;;;;;5112888;28;20231;-73
2022/03/02 11:21:21;;;;;;;14.93;11.67;;;8.10;41.30;;;;;;5112991;28;20199;-74
2022/03/02 11:23:50;;;;;;;15.20;11.70;;;8.10;43.90;;;;;;5113001;28;20196;-74
2022/03/02 11:26:18;;;;;;;13.63;10.70;;;7.90;41.40;;;;;;5113016;28;20191;-74
2022/03/02 11:28:48;;;;;;;12.43;10.80;;;8.00;41.90;;;;;;5112993;28;20203;-74
2022/03/02 11:31:23;;;;;;;12.47;10.47;;;8.00;41.00;;;;;;5112975;28;20195;-73
2022/03/02 11:33:50;;;;;;;13.00;10.87;;;7.70;38.50;;;;;;5112999;28;20722;-72
2022/03/02 11:36:19;;;;;;;14.30;10.87;;;7.70;40.10;;;;;;5113081;28;20577;-76
2022/03/02 11:38:53;;;;;;;14.37;11.07;;;7.90;40.30;;;;;;5113135;28;20196;-75
2022/03/02 11:41:32;;;;;;;11.97;9.97;;;7.80;40.30;;;;;;5112957;28;20196;-74
2022/03/02 11:43:59;;;;;;;11.40;10.13;;;7.90;39.20;;;;;;5112755;28;20693;-74
2022/03/02 11:46:27;;;;;;;12.70;10.43;;;7.90;40.20;;;;;;5112613;28;20261;-73
2022/03/02 11:48:54;;;;;;;13.20;10.67;;;8.00;38.90;;;;;;5112714;28;20842;-72
2022/03/02 11:51:23;;;;;;;14.10;11.03;;;7.90;38.40;;;;;;5112867;28;20713;-73
2022/03/02 11:53:53;;;;;;;13.33;10.80;;;8.10;39.50;;;;;;5112787;28;20196;-74
2022/03/02 11:56:23;;;;;;;13.97;10.97;;;8.10;39.80;;;;;;5112491;28;20286;-75
2022/03/02 11:59:03;;;;;;;13.17;10.77;;;8.00;38.80;;;;;;5112704;28;20196;-73
2022/03/02 12:01:42;;;;;;;11.80;10.20;;;7.90;40.20;;;;;;5112748;28;20248;-75
2022/03/02 12:04:09;;;;;;;13.87;10.70;;;7.90;40.20;;;;;;5112848;28;20256;-74
2022/03/02 12:06:42;;;;;;;15.10;10.90;;;7.90;39.20;;;;;;5112366;28;20203;-74
2022/03/02 12:09:09;;;;;;;13.53;11.40;;;7.90;39.50;;;;;;5114459;28;20648;-76
2022/03/02 12:11:38;;;;;;;15.27;9.37;;;8.00;38.70;;;;;;5116179;28;20286;-74
2022/03/02 12:14:07;;;;;;;14.50;11.00;;;8.00;38.80;;;;;;5116384;28;20219;-75
2022/03/02 12:16:39;;;;;;;12.57;10.27;;;7.80;38.90;;;;;;5116235;28;20248;-74
2022/03/02 12:19:10;;;;;;;12.67;10.83;;;7.60;38.20;;;;;;5115868;28;20231;-72
2022/03/02 12:21:37;;;;;;;13.90;11.20;;;7.60;38.50;;;;;;5115814;28;20248;-72
2022/03/02 12:24:04;;;;;;;14.47;11.03;;;7.60;39.60;;;;;;5115680;28;20207;-72
2022/03/02 12:26:32;;;;;;;14.20;11.37;;;7.50;41.60;;;;;;5115815;28;20195;-73
2022/03/02 12:28:58;;;;;;;13.40;10.70;;;7.50;40.20;;;;;;5115768;28;20195;-73
2022/03/02 12:31:32;;;;;;;14.67;11.57;;;7.30;41.20;;;;;;5115782;28;20203;-73
2022/03/02 12:34:13;;;;;;;13.43;11.47;;;7.20;41.90;;;;;;5115630;28;20200;-73
2022/03/02 12:36:40;;;;;;;13.77;11.20;;;7.00;41.80;;;;;;5115385;28;20254;-72